Terminal Aerodrome Forecast
Issued by NWS Rapid City, SD

Home | Current Version | Previous Version | Graphics & Text | Print | Product List | Glossary On
Versions: 1 2 3 4 5 6 7 8 9 10 11 12 13 14 15 16 17 18 19 20 21 22 23 24 25
263
FTUS43 KUNR 271120
TAFRAP
TAF
KRAP 271120Z 2712/2812 35016KT 3SM -RA BR BKN006 OVC015
     FM271800 36018G25KT 4SM -RA BR SCT008 OVC015
     FM280200 36015KT 2SM -RASN BKN008 OVC015=

USA.gov is the U.S. government's official web portal to all federal, state and local government web resources and services.